Terminal Aerodrome Forecast
Issued by NWS

Home | Current Version | Previous Version | Text Only | Print | Product List | Glossary On
Versions: 1 2 3 4 5 6 7 8 9 10 11 12 13 14 15 16 17 18 19 20 21
000
FTUS44 KOHX 020300 AAB
TAFCKV
TAF AMD
KCKV 020315Z 0203/0224 33006KT 2SM -RA BR BKN005 OVC015
      TEMPO 0209/0213 2SM -FZRA BR OVC003
     FM021400 04009KT P6SM OVC007
     FM021600 04009KT P6SM OVC025
     FM021800 05008KT P6SM OVC050=

USA.gov is the U.S. government's official web portal to all federal, state and local government web resources and services.